Time;durP1;ratioP1;P1;durP2;ratioP2;P2;SDS_P1;SDS_P2;PMS_P1;PMS_P2;Temp;Humidity;BMP_temperature;BMP_pressure;BME280_temperature;BME280_humidity;BME280_pressure;Samples;Min_cycle;Max_cycle;Signal;HPM_P1;HPM_P2
2022/08/17 00:00:30;;;;;;;32.05;7.32;;;;;;;21.44;100.00;97416.38;5014582;28;20041;-60
2022/08/17 00:03:07;;;;;;;30.80;7.20;;;;;;;21.24;100.00;97427.03;5015007;28;20496;-60
2022/08/17 00:05:39;;;;;;;31.40;7.47;;;;;;;20.87;100.00;97417.22;5013742;28;20038;-59
2022/08/17 00:08:04;;;;;;;47.83;7.85;;;;;;;21.36;100.00;97412.63;5014210;28;20021;-59
2022/08/17 00:10:30;;;;;;;32.55;7.35;;;;;;;20.88;100.00;97413.59;5012810;28;20038;-59
2022/08/17 00:12:56;;;;;;;31.63;7.57;;;;;;;20.57;100.00;97424.31;5013953;28;20840;-59
2022/08/17 00:15:22;;;;;;;33.42;7.47;;;;;;;20.48;100.00;97421.69;5010055;28;20483;-60
2022/08/17 00:17:49;;;;;;;38.30;7.72;;;;;;;20.40;100.00;97409.09;5014583;28;20022;-60
2022/08/17 00:20:16;;;;;;;37.95;7.85;;;;;;;20.95;100.00;97417.34;5012390;28;20083;-59
2022/08/17 00:22:41;;;;;;;32.40;7.57;;;;;;;20.72;100.00;97410.69;5015994;28;20108;-60
2022/08/17 00:25:12;;;;;;;39.00;8.18;;;;;;;20.59;100.00;97417.06;5015466;28;20017;-61
2022/08/17 00:27:38;;;;;;;38.35;7.47;;;;;;;20.59;100.00;97414.41;5011851;28;20038;-59
2022/08/17 00:30:05;;;;;;;33.88;7.45;;;;;;;20.74;100.00;97414.03;5011393;28;20227;-59
2022/08/17 00:32:43;;;;;;;35.50;8.20;;;;;;;20.68;100.00;97425.19;5011647;28;20766;-59
2022/08/17 00:35:10;;;;;;;37.15;7.53;;;;;;;20.64;100.00;97419.34;5013901;28;20044;-60
2022/08/17 00:37:36;;;;;;;35.72;7.55;;;;;;;20.49;100.00;97418.88;5013792;28;20025;-60
2022/08/17 00:40:03;;;;;;;43.60;8.55;;;;;;;20.50;100.00;97423.19;5012562;28;20029;-59
2022/08/17 00:42:28;;;;;;;43.45;8.25;;;;;;;20.90;100.00;97418.75;5012423;28;20140;-59
2022/08/17 00:44:53;;;;;;;40.13;8.40;;;;;;;20.46;100.00;97421.81;5014891;28;20399;-59
2022/08/17 00:47:19;;;;;;;38.58;7.93;;;;;;;20.93;100.00;97419.28;5013137;28;20041;-59
2022/08/17 00:49:44;;;;;;;37.45;7.65;;;;;;;20.47;100.00;97426.13;5013638;28;20575;-60
2022/08/17 00:52:15;;;;;;;40.33;8.05;;;;;;;20.40;100.00;97417.91;5012457;28;20041;-60
2022/08/17 00:54:44;;;;;;;41.97;8.73;;;;;;;20.08;100.00;97422.59;5012709;28;20147;-60
2022/08/17 00:57:29;;;;;;;39.65;7.82;;;;;;;20.29;100.00;97418.06;5013294;28;20121;-60
2022/08/17 00:59:59;;;;;;;31.60;7.72;;;;;;;20.15;100.00;97416.63;5011236;28;20029;-59
2022/08/17 01:02:25;;;;;;;37.33;7.95;;;;;;;20.14;100.00;97411.47;5010995;28;20050;-59
2022/08/17 01:04:55;;;;;;;34.55;7.55;;;;;;;20.34;100.00;97407.03;5010610;28;20120;-60
2022/08/17 01:07:23;;;;;;;34.70;7.95;;;;;;;20.50;100.00;97412.59;5009309;28;20037;-59
2022/08/17 01:09:50;;;;;;;53.50;9.63;;;;;;;20.43;100.00;97408.84;5012736;28;20032;-60
2022/08/17 01:12:15;;;;;;;34.20;7.78;;;;;;;20.33;100.00;97410.66;5011423;28;20045;-59
2022/08/17 01:14:41;;;;;;;49.63;9.18;;;;;;;20.35;100.00;97409.53;5013175;28;20033;-59
2022/08/17 01:17:07;;;;;;;36.03;7.80;;;;;;;20.31;100.00;97412.59;5011032;28;20934;-60
2022/08/17 01:19:37;;;;;;;39.47;7.70;;;;;;;20.50;100.00;97412.59;5011636;28;20539;-59
2022/08/17 01:22:13;;;;;;;37.28;7.95;;;;;;;20.21;100.00;97413.41;5013407;28;20033;-60
2022/08/17 01:24:47;;;;;;;35.83;7.75;;;;;;;20.34;100.00;97413.16;5013267;28;20579;-59
2022/08/17 01:27:13;;;;;;;32.92;7.53;;;;;;;20.09;100.00;97414.53;5011961;28;20041;-59
2022/08/17 01:29:42;;;;;;;36.97;8.23;;;;;;;19.90;100.00;97414.50;5012655;28;20971;-59
2022/08/17 01:32:08;;;;;;;36.47;8.00;;;;;;;20.14;100.00;97409.66;5010268;28;20444;-59
2022/08/17 01:34:35;;;;;;;27.65;7.32;;;;;;;20.13;100.00;97405.34;5012877;28;20030;-59
2022/08/17 01:37:00;;;;;;;46.80;9.10;;;;;;;20.15;100.00;97403.38;5009980;28;20491;-59
2022/08/17 01:39:38;;;;;;;37.00;8.23;;;;;;;19.96;100.00;97408.63;5013962;28;20590;-59
2022/08/17 01:42:23;;;;;;;48.40;8.68;;;;;;;19.82;100.00;97397.47;5012114;28;20041;-59
2022/08/17 01:44:53;;;;;;;37.50;8.35;;;;;;;20.09;100.00;97403.94;5011511;28;20939;-59
2022/08/17 01:47:19;;;;;;;36.45;8.27;;;;;;;19.82;100.00;97405.41;5010624;28;20037;-59
2022/08/17 01:49:44;;;;;;;32.72;8.10;;;;;;;19.77;100.00;97409.44;5010924;28;20032;-59
2022/08/17 01:52:10;;;;;;;48.28;8.68;;;;;;;19.65;100.00;97396.28;5013520;28;20595;-59
2022/08/17 01:54:40;;;;;;;36.10;8.10;;;;;;;19.63;100.00;97403.53;5012605;28;20595;-59
2022/08/17 01:57:06;;;;;;;45.25;8.73;;;;;;;19.55;100.00;97405.16;5012292;28;20048;-59
2022/08/17 01:59:32;;;;;;;34.47;7.75;;;;;;;19.66;100.00;97407.69;5012567;28;20025;-59
2022/08/17 02:01:58;;;;;;;30.38;7.68;;;;;;;19.71;100.00;97412.59;5010768;28;20033;-59
2022/08/17 02:04:23;;;;;;;40.00;8.20;;;;;;;19.94;100.00;97394.72;5012069;28;20033;-60
2022/08/17 02:06:49;;;;;;;30.90;7.38;;;;;;;20.18;100.00;97400.47;5010472;28;20045;-59
2022/08/17 02:09:14;;;;;;;39.22;8.32;;;;;;;20.08;100.00;97399.63;5011144;28;20826;-59
2022/08/17 02:11:40;;;;;;;40.75;8.30;;;;;;;19.72;100.00;97401.91;5010845;28;20037;-60
2022/08/17 02:14:09;;;;;;;32.38;7.47;;;;;;;19.59;100.00;97403.91;5010391;28;20121;-59
2022/08/17 02:16:37;;;;;;;29.98;7.72;;;;;;;19.33;100.00;97399.09;5009434;28;20045;-59
2022/08/17 02:19:03;;;;;;;31.55;7.38;;;;;;;19.63;100.00;97392.94;5012368;28;20033;-59
2022/08/17 02:21:30;;;;;;;39.88;8.30;;;;;;;20.05;100.00;97391.94;5009205;28;20144;-59
2022/08/17 02:23:55;;;;;;;35.38;7.75;;;;;;;19.70;100.00;97393.22;5012578;28;20041;-59
2022/08/17 02:26:21;;;;;;;46.75;8.73;;;;;;;19.45;100.00;97387.44;5012149;28;20030;-59
2022/08/17 02:28:47;;;;;;;35.53;7.90;;;;;;;19.42;100.00;97385.06;5011893;28;20033;-59
2022/08/17 02:31:12;;;;;;;35.63;7.90;;;;;;;19.55;100.00;97382.19;5007733;28;20112;-59
2022/08/17 02:33:38;;;;;;;30.90;7.50;;;;;;;19.60;100.00;97371.22;5013507;28;20088;-59
2022/08/17 02:36:04;;;;;;;32.80;7.72;;;;;;;19.44;100.00;97377.81;5011578;28;20753;-59
2022/08/17 02:38:30;;;;;;;38.45;8.05;;;;;;;19.68;100.00;97370.53;5014313;28;20123;-59
2022/08/17 02:40:57;;;;;;;40.92;8.57;;;;;;;19.76;100.00;97371.56;5010120;28;20044;-59
2022/08/17 02:43:23;;;;;;;42.83;8.80;;;;;;;19.50;100.00;97370.34;5009600;28;20025;-60
2022/08/17 02:45:49;;;;;;;48.25;8.65;;;;;;;19.62;100.00;97370.09;5009772;28;20396;-59
2022/08/17 02:48:15;;;;;;;39.55;8.70;;;;;;;19.52;100.00;97385.13;5012533;28;20625;-59
2022/08/17 02:50:40;;;;;;;47.15;8.77;;;;;;;19.68;100.00;97376.66;5009366;28;20881;-59
2022/08/17 02:53:05;;;;;;;33.08;7.78;;;;;;;19.60;100.00;97371.22;5008691;28;20663;-60
2022/08/17 02:55:38;;;;;;;38.70;8.00;;;;;;;19.55;100.00;97373.41;5012249;28;20150;-59
2022/08/17 02:58:05;;;;;;;40.47;8.50;;;;;;;19.47;100.00;97376.75;5014613;28;20137;-59
2022/08/17 03:00:33;;;;;;;52.67;9.32;;;;;;;19.73;100.00;97366.53;5012834;28;20060;-59
2022/08/17 03:03:01;;;;;;;47.88;9.45;;;;;;;19.43;100.00;97368.25;5011932;28;20017;-59
2022/08/17 03:05:28;;;;;;;33.95;8.23;;;;;;;19.37;100.00;97371.44;5014057;28;20150;-59
2022/08/17 03:07:54;;;;;;;38.88;8.10;;;;;;;19.38;100.00;97367.78;5013125;28;20056;-59
2022/08/17 03:10:20;;;;;;;44.05;9.25;;;;;;;19.50;100.00;97365.91;5012494;28;20030;-59
2022/08/17 03:12:46;;;;;;;43.95;8.50;;;;;;;19.48;100.00;97367.00;5014450;28;20037;-59
2022/08/17 03:15:24;;;;;;;42.05;8.93;;;;;;;19.51;100.00;97372.03;5011494;28;20037;-58
2022/08/17 03:17:51;;;;;;;44.28;8.93;;;;;;;19.42;100.00;97369.19;5015553;28;20319;-60
2022/08/17 03:20:18;;;;;;;39.40;8.40;;;;;;;19.10;100.00;97363.22;5013229;28;20077;-61
2022/08/17 03:22:50;;;;;;;46.75;10.05;;;;;;;19.03;100.00;97366.38;5015542;28;20026;-60
2022/08/17 03:25:22;;;;;;;36.90;8.50;;;;;;;19.53;100.00;97372.72;5012628;28;20018;-61
2022/08/17 03:27:48;;;;;;;35.90;8.25;;;;;;;19.64;100.00;97357.56;5016069;28;20033;-60
2022/08/17 03:30:14;;;;;;;44.47;9.02;;;;;;;19.44;100.00;97369.91;5014293;28;20555;-60
2022/08/17 03:32:43;;;;;;;60.40;10.32;;;;;;;19.37;100.00;97365.28;5012588;28;20038;-60
2022/08/17 03:35:09;;;;;;;48.05;9.48;;;;;;;19.23;100.00;97367.31;5013966;28;20165;-58
2022/08/17 03:37:35;;;;;;;31.75;7.60;;;;;;;19.45;100.00;97368.09;5011602;28;20018;-60
2022/08/17 03:40:01;;;;;;;59.85;10.73;;;;;;;19.30;100.00;97374.72;5011807;28;20026;-60
2022/08/17 03:42:27;;;;;;;42.97;8.95;;;;;;;19.10;100.00;97371.13;5011276;28;20037;-60
2022/08/17 03:44:55;;;;;;;51.17;9.55;;;;;;;19.47;100.00;97360.88;5014130;28;20045;-60
2022/08/17 03:58:21;;;;;;;41.22;8.77;;;;;;;19.37;100.00;97376.72;5015010;28;20181;-60
2022/08/17 04:00:48;;;;;;;44.80;8.80;;;;;;;19.31;100.00;97377.22;5012766;28;20748;-60
2022/08/17 04:03:14;;;;;;;52.58;9.38;;;;;;;19.25;100.00;97383.06;5012987;28;20121;-60
2022/08/17 04:05:40;;;;;;;38.72;8.88;;;;;;;19.28;100.00;97380.16;5012907;28;20091;-61
2022/08/17 04:08:06;;;;;;;42.92;8.80;;;;;;;19.10;100.00;97373.78;5013306;28;20025;-60
2022/08/17 04:10:33;;;;;;;41.65;8.85;;;;;;;18.81;100.00;97377.13;5013369;28;20033;-60
2022/08/17 04:12:58;;;;;;;45.58;9.38;;;;;;;18.87;100.00;97379.22;5013411;28;20029;-60
2022/08/17 04:15:24;;;;;;;55.40;10.57;;;;;;;19.06;100.00;97374.06;5010783;28;20052;-60
2022/08/17 04:17:50;;;;;;;37.67;7.82;;;;;;;20.05;100.00;97383.16;5013013;28;20483;-60
2022/08/17 04:20:18;;;;;;;50.83;9.45;;;;;;;19.71;100.00;97379.03;5013618;28;20091;-60
2022/08/17 04:22:55;;;;;;;43.28;8.38;;;;;;;19.56;100.00;97399.75;5012021;28;20037;-60
2022/08/17 04:25:20;;;;;;;46.40;9.50;;;;;;;19.20;100.00;97401.94;5013351;28;20026;-60
2022/08/17 04:27:47;;;;;;;35.35;8.00;;;;;;;19.30;100.00;97401.16;5012895;28;20041;-60
2022/08/17 04:30:13;;;;;;;37.65;8.80;;;;;;;19.12;100.00;97396.50;5012938;28;20038;-60
2022/08/17 04:33:02;;;;;;;31.00;7.63;;;;;;;18.55;100.00;97395.97;5014109;28;20739;-60
2022/08/17 04:35:30;;;;;;;36.72;8.55;;;;;;;18.67;100.00;97404.66;5013914;28;20053;-61
2022/08/17 04:37:57;;;;;;;42.47;8.75;;;;;;;19.07;100.00;97410.09;5012040;28;20080;-60
2022/08/17 04:43:11;;;;;;;50.53;9.77;;;;;;;18.92;100.00;97408.75;5013088;28;20177;-59
2022/08/17 04:45:42;;;;;;;58.60;10.13;;;;;;;18.87;100.00;97410.94;5011124;28;20034;-61
2022/08/17 04:48:08;;;;;;;41.88;9.30;;;;;;;18.64;100.00;97405.75;5014124;28;20039;-60
2022/08/17 04:50:41;;;;;;;56.67;10.05;;;;;;;18.66;100.00;97414.38;5011802;28;20041;-61
2022/08/17 04:53:07;;;;;;;45.63;9.23;;;;;;;18.77;100.00;97415.31;5011834;28;20396;-60
2022/08/17 04:55:32;;;;;;;45.45;9.32;;;;;;;19.02;100.00;97414.09;5010549;28;20034;-61
2022/08/17 04:57:58;;;;;;;46.63;9.23;;;;;;;19.27;100.00;97407.56;5013418;28;20151;-60
2022/08/17 05:00:24;;;;;;;42.53;9.27;;;;;;;19.63;100.00;97413.28;5011155;28;20444;-61
2022/08/17 05:02:52;;;;;;;43.97;9.45;;;;;;;19.71;100.00;97416.09;5011052;28;20086;-61
2022/08/17 05:05:25;;;;;;;40.67;8.35;;;;;;;20.31;100.00;97417.88;5012592;28;20036;-61
2022/08/17 05:07:51;;;;;;;40.45;8.70;;;;;;;20.27;100.00;97419.16;5009656;28;20053;-60
2022/08/17 05:10:18;;;;;;;41.40;8.70;;;;;;;20.52;100.00;97426.53;5011814;28;20053;-60
2022/08/17 05:12:44;;;;;;;47.03;8.95;;;;;;;20.39;100.00;97426.00;5013810;28;20032;-60
2022/08/17 05:15:14;;;;;;;40.80;8.70;;;;;;;20.32;100.00;97427.53;5013604;28;20026;-59
2022/08/17 05:17:40;;;;;;;47.45;9.32;;;;;;;20.53;100.00;97427.38;5012778;28;20435;-60
2022/08/17 05:20:06;;;;;;;49.20;9.70;;;;;;;20.38;100.00;97425.16;5011141;28;20046;-60
2022/08/17 05:22:31;;;;;;;39.22;8.77;;;;;;;20.75;100.00;97419.19;5012091;28;20022;-60
2022/08/17 05:24:56;;;;;;;44.58;8.90;;;;;;;21.83;100.00;97421.53;5011845;28;20104;-60
2022/08/17 05:27:22;;;;;;;41.03;8.38;;;;;;;21.69;100.00;97426.34;5011082;28;20684;-62
2022/08/17 05:29:47;;;;;;;40.17;8.57;;;;;;;21.60;100.00;97432.53;5012104;28;20040;-60
2022/08/17 05:32:13;;;;;;;33.97;8.10;;;;;;;21.75;100.00;97425.75;5011859;28;20044;-62
2022/08/17 05:34:38;;;;;;;38.70;8.40;;;;;;;21.51;100.00;97428.94;5011020;28;20603;-61
2022/08/17 05:37:04;;;;;;;65.70;11.18;;;;;;;22.74;100.00;97431.28;5000418;28;20584;-61
2022/08/17 05:39:30;;;;;;;51.53;9.73;;;;;;;22.23;100.00;97418.47;5007180;28;20639;-61
2022/08/17 05:41:56;;;;;;;54.40;9.38;;;;;;;22.68;100.00;97416.75;5007185;28;20033;-60
2022/08/17 05:44:21;;;;;;;45.47;8.98;;;;;;;23.04;100.00;97427.38;5008987;28;20072;-60
2022/08/17 05:46:49;;;;;;;48.35;9.07;;;;;;;24.11;100.00;97425.25;5009536;28;20146;-61
2022/08/17 05:49:18;;;;;;;47.17;8.52;;;;;;;24.31;100.00;97415.97;5005234;28;20112;-60
2022/08/17 05:52:09;;;;;;;40.35;7.88;;;;;;;25.13;100.00;97413.34;5009132;28;20048;-60
2022/08/17 05:55:00;;;;;;;35.45;7.65;;;;;;;28.13;73.58;97417.06;5011400;28;20034;-60
2022/08/17 05:57:34;;;;;;;35.33;7.72;;;;;;;28.47;64.20;97408.34;5009700;28;20045;-60
2022/08/17 06:00:04;;;;;;;46.72;8.57;;;;;;;27.45;66.74;97417.19;5010422;28;20057;-60
2022/08/17 06:02:48;;;;;;;34.67;7.40;;;;;;;30.07;57.27;97411.38;5010585;28;20066;-60
2022/08/17 06:05:13;;;;;;;35.22;7.72;;;;;;;30.77;51.37;97409.28;5011610;28;20041;-60
2022/08/17 06:07:48;;;;;;;29.13;7.03;;;;;;;29.96;53.59;97410.09;5011083;28;20038;-61
2022/08/17 06:10:25;;;;;;;32.83;7.78;;;;;;;30.56;51.08;97416.50;5009887;28;20042;-60
2022/08/17 06:13:20;;;;;;;28.77;6.85;;;;;;;31.25;49.05;97417.16;5010984;28;20037;-61
2022/08/17 06:16:06;;;;;;;30.20;6.80;;;;;;;32.41;46.45;97412.84;5012180;28;20115;-61
2022/08/17 06:18:42;;;;;;;29.65;6.90;;;;;;;33.02;44.49;97411.41;5007343;28;20136;-61
2022/08/17 06:21:12;;;;;;;42.33;7.75;;;;;;;33.55;40.82;97406.56;5011385;28;20033;-61
2022/08/17 06:23:47;;;;;;;25.50;6.63;;;;;;;31.06;44.52;97410.78;5011093;28;20144;-61
2022/08/17 06:26:20;;;;;;;28.45;6.80;;;;;;;32.71;42.75;97401.47;5010445;28;20038;-61
2022/08/17 06:29:02;;;;;;;32.88;6.90;;;;;;;33.36;41.56;97400.31;5012128;28;20756;-62
2022/08/17 06:31:33;;;;;;;29.65;6.57;;;;;;;32.52;42.72;97403.25;5011301;28;20046;-61
2022/08/17 06:34:01;;;;;;;19.38;5.20;;;;;;;34.60;39.66;97402.75;5007539;28;20410;-61
2022/08/17 06:36:45;;;;;;;22.42;5.70;;;;;;;33.04;40.83;97422.81;5010128;28;20041;-61
2022/08/17 06:39:54;;;;;;;19.10;5.57;;;;;;;33.79;39.31;97418.41;5010184;28;20125;-61
2022/08/17 06:42:39;;;;;;;18.98;5.40;;;;;;;34.30;37.35;97408.19;5011175;28;20089;-61
2022/08/17 06:45:21;;;;;;;22.48;5.45;;;;;;;32.92;40.22;97415.63;5011838;28;20116;-61
2022/08/17 06:47:55;;;;;;;21.65;5.63;;;;;;;33.63;38.92;97418.97;5009169;28;20100;-62
2022/08/17 06:50:26;;;;;;;22.10;5.43;;;;;;;35.87;35.12;97427.72;5008534;28;20044;-61
2022/08/17 06:52:58;;;;;;;24.95;5.63;;;;;;;35.78;34.57;97424.56;5012911;28;20022;-61
2022/08/17 06:55:48;;;;;;;19.52;5.22;;;;;;;37.11;33.07;97425.41;5011348;28;20536;-62
2022/08/17 06:58:19;;;;;;;19.20;4.88;;;;;;;36.38;33.11;97422.53;5012914;28;20029;-60
2022/08/17 07:00:47;;;;;;;18.60;5.40;;;;;;;36.82;33.26;97422.78;5008012;28;20568;-60
2022/08/17 07:03:36;;;;;;;18.52;5.32;;;;;;;37.29;32.15;97419.75;5003307;28;20112;-60
2022/08/17 07:06:13;;;;;;;16.73;4.65;;;;;;;37.35;31.12;97426.91;5013402;28;20063;-61
2022/08/17 07:09:05;;;;;;;19.20;4.82;;;;;;;36.39;31.91;97424.16;5013400;28;20471;-62
2022/08/17 07:11:46;;;;;;;15.60;4.57;;;;;;;37.62;31.56;97418.06;5012453;28;20503;-60
2022/08/17 07:14:29;;;;;;;20.85;4.95;;;;;;;35.98;34.05;97417.91;5012183;28;20025;-60
2022/08/17 07:16:57;;;;;;;16.98;5.05;;;;;;;35.82;33.04;97419.47;5011572;28;20090;-60
2022/08/17 07:19:26;;;;;;;15.13;4.38;;;;;;;39.08;30.76;97420.22;5012816;28;20017;-62
2022/08/17 07:22:02;;;;;;;18.02;5.00;;;;;;;36.50;32.23;97423.28;5012060;28;20045;-60
2022/08/17 07:24:34;;;;;;;15.63;4.28;;;;;;;38.59;29.51;97423.03;5013901;28;20075;-59
2022/08/17 07:27:11;;;;;;;15.77;4.22;;;;;;;39.32;28.40;97432.38;5010360;28;20048;-61
2022/08/17 07:29:40;;;;;;;14.55;4.30;;;;;;;39.41;29.63;97431.88;5013035;28;20037;-60
2022/08/17 07:32:08;;;;;;;16.30;4.78;;;;;;;39.53;29.25;97431.72;5012550;28;20038;-61
2022/08/17 07:35:01;;;;;;;13.57;4.25;;;;;;;37.60;31.07;97439.22;5013903;28;20649;-62
2022/08/17 07:37:26;;;;;;;13.80;4.22;;;;;;;41.75;26.43;97437.34;5012738;28;20041;-60
2022/08/17 07:39:52;;;;;;;11.70;4.20;;;;;;;38.96;28.73;97447.63;5010960;28;20443;-61
2022/08/17 07:42:18;;;;;;;14.55;4.55;;;;;;;39.00;29.17;97446.00;5019466;28;20066;-62
2022/08/17 07:44:54;;;;;;;11.38;4.03;;;;;;;38.59;29.11;97444.84;5016688;28;20439;-60
2022/08/17 07:50:25;;;;;;;15.88;4.28;;;;;;;41.30;26.97;97441.78;5016604;28;20045;-59
2022/08/17 07:52:50;;;;;;;10.18;3.70;;;;;;;42.43;25.42;97438.72;5016046;28;20025;-60
2022/08/17 07:55:30;;;;;;;10.88;4.13;;;;;;;40.64;27.70;97424.22;5016277;28;20030;-60
2022/08/17 07:57:57;;;;;;;10.83;3.83;;;;;;;39.84;27.49;97443.63;5015207;28;20053;-60
2022/08/17 08:00:23;;;;;;;15.90;4.78;;;;;;;41.50;27.11;97447.22;5016118;28;20057;-60
2022/08/17 08:03:37;;;;;;;15.30;4.55;;;;;;;38.83;28.92;97437.16;5014843;28;20637;-60
2022/08/17 08:06:02;;;;;;;9.48;3.55;;;;;;;40.01;27.69;97448.91;5015711;28;20084;-60
2022/08/17 08:08:41;;;;;;;13.23;4.20;;;;;;;40.55;27.01;97442.25;5014917;28;20085;-60
2022/08/17 08:11:11;;;;;;;12.18;3.80;;;;;;;41.50;26.29;97447.22;5014961;28;20040;-61
2022/08/17 08:13:42;;;;;;;11.63;4.30;;;;;;;41.02;26.49;97447.53;5014089;28;20028;-61
2022/08/17 08:16:15;;;;;;;10.70;3.70;;;;;;;42.72;26.10;97445.09;5015224;28;20095;-61
2022/08/17 08:18:45;;;;;;;14.38;4.15;;;;;;;42.54;26.10;97443.03;5016525;28;20067;-61
2022/08/17 08:21:33;;;;;;;10.38;3.72;;;;;;;40.95;26.41;97440.69;5012773;28;20042;-60
2022/08/17 08:24:11;;;;;;;9.13;3.72;;;;;;;43.11;25.10;97435.22;5016136;28;20789;-60
2022/08/17 08:26:45;;;;;;;11.82;4.00;;;;;;;43.65;25.07;97436.09;5015820;28;20126;-60
2022/08/17 08:29:32;;;;;;;11.70;4.15;;;;;;;40.91;27.73;97439.59;5016803;28;20022;-59
2022/08/17 08:32:19;;;;;;;9.23;3.80;;;;;;;43.48;25.29;97440.09;5013893;28;20199;-61
2022/08/17 08:34:57;;;;;;;10.27;3.67;;;;;;;42.20;26.07;97427.31;5014734;28;20408;-61
2022/08/17 08:37:34;;;;;;;10.57;3.53;;;;;;;43.11;25.55;97427.00;5014691;28;20042;-61
2022/08/17 08:40:21;;;;;;;16.27;4.18;;;;;;;39.90;27.95;97431.66;5014073;28;20088;-60
2022/08/17 08:42:55;;;;;;;9.95;3.72;;;;;;;44.04;23.38;97424.94;5016130;28;20100;-63
2022/08/17 08:45:58;;;;;;;13.65;3.63;;;;;;;41.88;25.43;97422.25;5015383;28;20813;-62
2022/08/17 08:48:42;;;;;;;11.25;4.00;;;;;;;40.06;27.65;97424.34;5014786;28;20048;-60
2022/08/17 08:51:16;;;;;;;10.00;3.70;;;;;;;43.59;24.36;97423.53;5015859;28;20038;-62
2022/08/17 08:54:12;;;;;;;9.25;3.42;;;;;;;40.69;26.52;97413.31;5012443;28;20045;-61
2022/08/17 08:56:41;;;;;;;10.00;3.70;;;;;;;40.85;26.05;97420.44;5015156;28;20554;-60
2022/08/17 08:59:39;;;;;;;9.65;3.72;;;;;;;41.60;25.81;97413.56;5015031;28;20056;-62
2022/08/17 09:02:43;;;;;;;9.20;3.50;;;;;;;42.52;25.21;97413.16;5012353;28;20063;-61
2022/08/17 09:05:24;;;;;;;12.52;3.92;;;;;;;43.29;25.06;97417.22;5012346;28;20839;-61
2022/08/17 09:08:28;;;;;;;10.48;3.63;;;;;;;41.38;26.12;97413.88;5012446;28;20030;-62
2022/08/17 09:11:05;;;;;;;11.15;3.67;;;;;;;40.74;27.62;97407.84;5011008;28;20034;-61
2022/08/17 09:13:59;;;;;;;10.43;3.45;;;;;;;42.69;25.29;97399.06;5014234;28;20521;-61
2022/08/17 09:16:40;;;;;;;15.05;3.83;;;;;;;42.50;24.37;97396.19;5015474;28;20038;-61
2022/08/17 09:19:15;;;;;;;11.10;3.83;;;;;;;40.68;26.68;97400.75;5012259;28;20052;-63
2022/08/17 09:21:53;;;;;;;12.75;3.58;;;;;;;40.37;26.68;97403.44;5012922;28;20460;-63
2022/08/17 09:24:38;;;;;;;8.95;3.60;;;;;;;40.98;26.61;97401.88;5013417;28;20049;-61
2022/08/17 09:27:38;;;;;;;10.52;3.40;;;;;;;43.79;23.85;97386.81;5014219;28;20041;-61
2022/08/17 09:30:09;;;;;;;14.57;4.17;;;;;;;41.73;24.67;97384.78;5018402;28;20037;-60
2022/08/17 09:32:48;;;;;;;10.75;3.50;;;;;;;40.98;25.17;97385.47;5015525;28;20256;-61
2022/08/17 09:35:21;;;;;;;19.20;3.95;;;;;;;43.07;23.88;97373.81;5012275;28;20042;-61
2022/08/17 09:38:10;;;;;;;13.00;3.58;;;;;;;43.65;22.43;97386.66;5016095;28;20107;-61
2022/08/17 09:40:52;;;;;;;8.90;3.00;;;;;;;42.49;24.12;97380.84;5015489;28;20040;-62
2022/08/17 09:43:37;;;;;;;12.18;3.63;;;;;;;42.02;23.39;97384.94;5015287;28;20025;-61
2022/08/17 09:46:14;;;;;;;11.40;3.45;;;;;;;41.75;24.35;97388.06;5014272;28;20176;-61
2022/08/17 09:48:45;;;;;;;12.23;3.60;;;;;;;39.91;24.72;97384.19;5013784;28;20032;-61
2022/08/17 09:51:23;;;;;;;15.18;3.55;;;;;;;39.88;25.21;97384.66;5014136;28;20088;-64
2022/08/17 09:53:49;;;;;;;12.35;3.38;;;;;;;41.30;23.30;97376.13;5014484;28;20021;-62
2022/08/17 09:56:58;;;;;;;16.05;3.78;;;;;;;43.00;22.13;97376.91;5013966;28;20034;-61
2022/08/17 10:00:11;;;;;;;17.15;4.05;;;;;;;40.08;24.71;97379.28;5013897;28;20099;-65
2022/08/17 10:03:19;;;;;;;16.58;3.88;;;;;;;41.20;23.19;97382.41;5014788;28;20050;-62
2022/08/17 10:06:01;;;;;;;14.40;3.90;;;;;;;42.18;22.56;97391.16;5014074;28;20052;-61
2022/08/17 10:08:51;;;;;;;13.55;4.00;;;;;;;42.14;22.18;97384.63;5015180;28;20799;-60
2022/08/17 10:12:14;;;;;;;12.05;3.25;;;;;;;40.32;24.48;97384.28;5014634;28;20044;-60
2022/08/17 10:14:19;;;;;;;13.02;3.58;;;;;;;37.88;26.23;97375.66;5015599;28;20061;-61
2022/08/17 10:16:54;;;;;;;12.18;3.55;;;;;;;40.25;25.43;97372.78;5012316;28;20987;-61
2022/08/17 10:19:32;;;;;;;12.13;3.50;;;;;;;38.73;25.95;97369.78;5014106;28;20556;-60
2022/08/17 10:27:47;;;;;;;12.02;3.88;;;;;;;41.17;24.74;97361.06;5012980;28;20557;-60
2022/08/17 10:30:16;;;;;;;13.82;3.63;;;;;;;41.95;22.68;97355.09;5013394;28;20029;-59
2022/08/17 10:32:54;;;;;;;12.75;3.60;;;;;;;41.36;23.27;97353.97;5013737;28;20068;-59
2022/08/17 10:35:24;;;;;;;11.35;3.55;;;;;;;40.52;25.14;97352.63;5013757;28;20033;-59
2022/08/17 10:38:14;;;;;;;15.43;3.92;;;;;;;41.90;23.23;97355.13;5014375;28;20025;-62
2022/08/17 10:40:53;;;;;;;11.97;3.63;;;;;;;41.77;23.15;97353.00;5013914;28;20042;-63
2022/08/17 10:43:51;;;;;;;11.18;3.53;;;;;;;42.38;22.50;97358.13;5013841;28;20092;-63
2022/08/17 10:46:51;;;;;;;13.95;3.65;;;;;;;40.19;23.61;97357.47;5013054;28;20133;-63
2022/08/17 10:49:16;;;;;;;11.10;3.20;;;;;;;41.15;23.38;97364.09;5013665;28;20057;-62
2022/08/17 10:51:44;;;;;;;14.00;3.90;;;;;;;40.92;23.48;97359.19;5012858;28;20096;-61
2022/08/17 10:54:38;;;;;;;11.55;3.13;;;;;;;40.79;23.34;97360.59;5017359;28;21052;-63
2022/08/17 10:57:26;;;;;;;12.13;3.65;;;;;;;39.12;25.27;97359.44;5012595;28;20037;-62
2022/08/17 10:59:56;;;;;;;18.50;4.45;;;;;;;40.36;23.83;97352.59;5011167;28;20253;-62
2022/08/17 11:02:47;;;;;;;9.88;3.03;;;;;;;39.14;25.38;97353.72;5011312;28;20048;-61
2022/08/17 11:05:26;;;;;;;13.77;3.83;;;;;;;39.58;24.24;97353.44;5010457;28;20049;-61
2022/08/17 11:08:16;;;;;;;21.13;4.60;;;;;;;37.16;26.52;97363.00;5014318;28;20071;-60
2022/08/17 11:10:50;;;;;;;12.10;3.80;;;;;;;36.27;27.66;97368.03;5013203;28;20040;-60
2022/08/17 11:13:50;;;;;;;12.68;3.67;;;;;;;36.93;28.70;97359.38;5013953;28;20036;-60
2022/08/17 11:16:27;;;;;;;11.05;3.40;;;;;;;37.73;26.16;97362.69;5016818;28;20064;-60
2022/08/17 11:19:29;;;;;;;11.38;3.60;;;;;;;36.84;27.09;97358.16;5018229;28;20065;-61
2022/08/17 11:22:00;;;;;;;13.35;3.70;;;;;;;37.65;26.81;97359.63;5018037;28;20030;-60
2022/08/17 11:24:32;;;;;;;;;;;;;;;39.16;24.95;97361.66;5016867;28;20029;-62
2022/08/17 11:27:21;;;;;;;12.38;3.50;;;;;;;38.11;26.13;97347.38;5016638;28;19940;-61
2022/08/17 11:29:46;;;;;;;12.48;3.47;;;;;;;38.21;26.47;97356.72;5016952;28;20091;-63
2022/08/17 11:32:30;;;;;;;18.63;4.20;;;;;;;37.01;27.54;97356.22;5016391;28;20049;-59
2022/08/17 11:35:33;;;;;;;17.50;4.53;;;;;;;37.63;26.72;97351.69;5022409;28;21078;-62
2022/08/17 11:38:14;;;;;;;18.27;4.50;;;;;;;37.73;27.66;97351.81;5019555;28;20080;-61
2022/08/17 11:41:07;;;;;;;22.33;5.47;;;;;;;36.96;28.05;97353.44;5017021;28;20400;-60
2022/08/17 11:43:59;;;;;;;17.27;4.38;;;;;;;37.05;28.13;97362.81;5017623;28;20470;-61
2022/08/17 11:52:37;;;;;;;24.17;5.25;;;;;;;35.81;28.80;97364.41;5016683;28;20163;-61
2022/08/17 11:55:08;;;;;;;22.60;4.88;;;;;;;36.66;28.27;97354.59;5015910;28;20029;-61
2022/08/17 11:57:39;;;;;;;;;;;;;;;37.58;26.82;97365.19;5017388;28;20064;-61
2022/08/17 12:00:10;;;;;;;;;;;;;;;37.68;26.67;97365.38;5017472;28;19913;-60
2022/08/17 12:02:43;;;;;;;19.92;4.50;;;;;;;36.89;26.71;97358.22;5015800;28;20027;-61
2022/08/17 12:05:21;;;;;;;17.75;4.18;;;;;;;35.16;28.61;97361.84;5017344;28;20037;-61
2022/08/17 12:07:55;;;;;;;19.63;4.32;;;;;;;37.09;26.97;97362.31;5018206;28;20236;-63
2022/08/17 12:10:30;;;;;;;19.67;4.68;;;;;;;36.99;27.30;97352.13;5015105;28;20057;-62
2022/08/17 12:12:57;;;;;;;23.08;4.85;;;;;;;36.21;28.46;97357.31;5016988;28;20025;-61
2022/08/17 12:15:40;;;;;;;23.30;4.63;;;;;;;37.48;28.46;97354.19;5013776;28;20476;-61
2022/08/17 12:18:05;;;;;;;23.50;4.70;;;;;;;36.34;29.95;97358.88;5017460;28;20036;-61
2022/08/17 12:20:35;;;;;;;23.15;5.30;;;;;;;36.14;28.26;97352.00;5015642;28;20034;-61